createdAt,value
2023-02-17T00:03:51.038Z,17.40
2023-02-17T00:08:57.655Z,17.40
2023-02-17T00:14:02.896Z,17.50
2023-02-17T00:19:25.267Z,17.50
2023-02-17T00:24:33.784Z,17.50
2023-02-17T00:29:42.539Z,17.50
2023-02-17T00:34:48.098Z,17.60
2023-02-17T00:39:54.947Z,17.60
2023-02-17T00:45:00.643Z,17.70
2023-02-17T00:50:07.427Z,17.70
2023-02-17T00:55:23.762Z,17.80
2023-02-17T01:00:29.543Z,17.90
2023-02-17T01:11:32.098Z,18.10
2023-02-17T01:16:42.775Z,18.10
2023-02-17T01:21:48.820Z,18.10
2023-02-17T01:26:54.042Z,18.00
2023-02-17T01:31:59.786Z,18.10
2023-02-17T01:37:05.803Z,18.10
2023-02-17T01:42:24.863Z,18.20
2023-02-17T01:47:30.369Z,18.40
2023-02-17T01:52:36.469Z,18.50
2023-02-17T01:57:42.734Z,18.50
2023-02-17T02:02:50.801Z,18.60
2023-02-17T02:07:58.791Z,18.60
2023-02-17T02:13:04.166Z,18.50
2023-02-17T02:19:06.445Z,18.60
2023-02-17T02:24:38.870Z,18.60
2023-02-17T02:30:08.904Z,18.60
2023-02-17T02:35:53.896Z,18.60
2023-02-17T02:41:12.382Z,18.70
2023-02-17T02:46:18.401Z,18.90
2023-02-17T02:51:36.020Z,19.10
2023-02-17T02:57:06.547Z,19.10
2023-02-17T03:02:31.462Z,19.00
2023-02-17T03:07:47.692Z,19.10
2023-02-17T03:12:53.288Z,19.20
2023-02-17T03:18:03.953Z,19.40
2023-02-17T03:23:10.618Z,19.30
2023-02-17T03:28:16.986Z,19.50
2023-02-17T03:33:22.821Z,20.00
2023-02-17T03:38:30.093Z,20.20
2023-02-17T03:43:36.872Z,20.10
2023-02-17T03:48:42.403Z,19.90
2023-02-17T03:53:51.011Z,19.90
2023-02-17T03:59:00.143Z,19.90
2023-02-17T04:04:06.530Z,19.90
2023-02-17T04:09:12.807Z,19.90
2023-02-17T04:14:18.492Z,20.10
2023-02-17T04:19:24.660Z,20.40
2023-02-17T04:24:31.237Z,20.50
2023-02-17T04:29:37.107Z,20.50
2023-02-17T04:34:42.337Z,20.70
2023-02-17T04:39:48.134Z,20.60
2023-02-17T04:44:56.086Z,20.20
2023-02-17T04:50:01.553Z,20.00
2023-02-17T04:55:09.680Z,20.10
2023-02-17T05:00:15.695Z,20.30
2023-02-17T05:05:22.435Z,20.50
2023-02-17T05:10:34.734Z,20.50
2023-02-17T05:15:40.408Z,20.80
2023-02-17T05:20:45.877Z,21.00
2023-02-17T05:25:51.666Z,20.80
2023-02-17T05:30:59.680Z,21.20
2023-02-17T05:36:10.752Z,21.50
2023-02-17T05:41:16.334Z,21.30
2023-02-17T05:46:24.585Z,20.80
2023-02-17T05:51:30.003Z,20.60
2023-02-17T05:56:41.241Z,20.50
2023-02-17T06:01:49.657Z,20.40
2023-02-17T06:06:55.828Z,20.40
2023-02-17T06:12:01.760Z,20.70
2023-02-17T06:17:10.016Z,20.90
2023-02-17T06:22:18.774Z,20.80
2023-02-17T06:27:25.101Z,20.70
2023-02-17T06:32:36.705Z,20.90
2023-02-17T06:37:45.317Z,21.00
2023-02-17T06:42:50.863Z,21.20
2023-02-17T06:47:56.625Z,21.40
2023-02-17T06:53:02.214Z,21.50
2023-02-17T06:58:09.721Z,21.40
2023-02-17T07:03:15.196Z,21.50
2023-02-17T07:08:20.562Z,21.60
2023-02-17T07:13:26.072Z,21.60
2023-02-17T07:18:33.652Z,21.80
2023-02-17T07:23:40.978Z,22.30
2023-02-17T07:28:46.958Z,22.60
2023-02-17T07:33:52.249Z,22.70
2023-02-17T07:38:58.064Z,22.60
2023-02-17T07:44:03.470Z,22.40
2023-02-17T07:49:11.489Z,22.40
2023-02-17T07:54:17.162Z,22.10
2023-02-17T07:59:22.413Z,21.80
2023-02-17T08:04:28.047Z,21.80
2023-02-17T08:09:51.683Z,21.60
2023-02-17T08:14:59.980Z,21.50
2023-02-17T08:20:08.976Z,21.50
2023-02-17T08:25:14.953Z,21.60
2023-02-17T08:30:24.065Z,21.60
2023-02-17T08:35:30.675Z,21.40
2023-02-17T08:40:36.044Z,21.10
2023-02-17T08:45:41.851Z,21.00
2023-02-17T08:50:50.431Z,21.10
2023-02-17T08:55:56.276Z,21.00
2023-02-17T09:01:02.269Z,21.00
2023-02-17T09:06:08.924Z,21.00
2023-02-17T09:11:18.730Z,21.00
2023-02-17T09:16:25.841Z,21.00
2023-02-17T09:21:31.595Z,21.10
2023-02-17T09:26:37.438Z,21.00
2023-02-17T09:31:43.385Z,20.90
2023-02-17T09:36:48.937Z,20.90
2023-02-17T09:41:56.755Z,20.60
2023-02-17T09:47:26.883Z,20.60
2023-02-17T09:52:38.484Z,20.50
2023-02-17T09:58:00.841Z,20.40
2023-02-17T10:03:22.408Z,20.40
2023-02-17T10:08:38.929Z,20.30
2023-02-17T10:13:47.041Z,20.20
2023-02-17T10:19:06.739Z,20.20
2023-02-17T10:24:12.846Z,20.10
2023-02-17T10:29:21.901Z,20.00
2023-02-17T10:35:06.036Z,19.80
2023-02-17T10:40:29.785Z,19.70
2023-02-17T10:45:50.980Z,19.70
2023-02-17T10:51:02.738Z,19.50
2023-02-17T10:56:19.900Z,19.40
2023-02-17T11:01:25.653Z,19.30
2023-02-17T11:06:33.265Z,19.10
2023-02-17T11:11:39.526Z,19.10
2023-02-17T11:16:51.421Z,19.00
2023-02-17T11:21:58.611Z,18.90
2023-02-17T11:27:13.000Z,18.80
2023-02-17T11:32:18.697Z,18.80
2023-02-17T11:37:28.517Z,18.80
2023-02-17T11:42:35.666Z,18.70
2023-02-17T11:48:02.160Z,18.70
2023-02-17T11:53:55.080Z,18.80
2023-02-17T11:59:12.830Z,18.80
2023-02-17T12:04:33.362Z,18.90
2023-02-17T12:09:45.074Z,19.00
2023-02-17T12:15:15.319Z,19.10
2023-02-17T12:20:21.506Z,19.20
2023-02-17T12:25:32.460Z,19.20
2023-02-17T12:31:19.599Z,19.20
2023-02-17T12:36:29.677Z,19.20
2023-02-17T12:41:49.284Z,19.20
2023-02-17T12:47:03.178Z,19.10
2023-02-17T12:52:43.837Z,19.20
2023-02-17T12:58:05.446Z,19.20
2023-02-17T13:03:11.594Z,19.20
2023-02-17T13:08:59.562Z,19.30
2023-02-17T13:14:39.320Z,19.20
2023-02-17T13:19:45.651Z,19.10
2023-02-17T13:24:54.868Z,19.00
2023-02-17T13:30:06.975Z,19.00
2023-02-17T13:35:28.087Z,19.00
2023-02-17T13:40:41.010Z,19.00
2023-02-17T13:46:08.257Z,19.00
2023-02-17T13:51:29.245Z,19.00
2023-02-17T13:56:37.868Z,19.00
2023-02-17T14:01:46.113Z,19.00
2023-02-17T14:06:52.762Z,19.00
2023-02-17T14:12:01.486Z,19.00
2023-02-17T14:17:34.340Z,18.90
2023-02-17T14:22:40.048Z,18.80
2023-02-17T14:27:46.537Z,18.80
2023-02-17T14:33:02.445Z,18.90
2023-02-17T14:38:25.034Z,18.90
2023-02-17T14:43:31.032Z,18.80
2023-02-17T14:48:36.741Z,18.80
2023-02-17T14:53:43.361Z,18.70
2023-02-17T14:58:50.083Z,18.80
2023-02-17T15:03:59.669Z,18.70
2023-02-17T15:09:05.706Z,18.70
2023-02-17T15:14:16.636Z,18.70
2023-02-17T15:19:23.701Z,18.70
2023-02-17T15:24:37.323Z,18.70
2023-02-17T15:29:43.795Z,18.60
2023-02-17T15:34:49.060Z,18.50
2023-02-17T15:39:54.923Z,18.50
2023-02-17T15:45:01.254Z,18.50
2023-02-17T15:50:06.878Z,18.50
2023-02-17T15:55:12.714Z,18.40
2023-02-17T16:00:34.308Z,18.40
2023-02-17T16:05:43.244Z,18.40
2023-02-17T16:10:53.460Z,18.30
2023-02-17T16:16:23.913Z,18.30
2023-02-17T16:21:30.808Z,18.30
2023-02-17T16:26:45.982Z,18.40
2023-02-17T16:32:05.080Z,18.40
2023-02-17T16:37:19.381Z,18.30
2023-02-17T16:42:24.712Z,18.30
2023-02-17T16:47:32.055Z,18.20
2023-02-17T16:52:53.880Z,18.20
2023-02-17T16:57:59.721Z,18.10
2023-02-17T17:03:14.656Z,18.20
2023-02-17T17:08:23.491Z,18.20
2023-02-17T17:13:29.121Z,18.20
2023-02-17T17:18:34.302Z,18.20
2023-02-17T17:23:43.536Z,18.20
2023-02-17T17:28:54.276Z,18.20
2023-02-17T17:33:59.641Z,18.00
2023-02-17T17:39:07.686Z,17.90
2023-02-17T17:44:13.637Z,17.90
2023-02-17T17:49:20.261Z,17.90
2023-02-17T17:54:25.797Z,17.90
2023-02-17T17:59:31.344Z,17.90
2023-02-17T18:04:37.006Z,17.80
2023-02-17T18:09:42.857Z,17.70
2023-02-17T18:14:53.308Z,17.70
2023-02-17T18:19:58.988Z,17.70
2023-02-17T18:25:04.403Z,17.70
2023-02-17T18:30:11.292Z,17.70
2023-02-17T18:35:18.955Z,17.70
2023-02-17T18:40:24.616Z,17.60
2023-02-17T18:45:29.959Z,17.50
2023-02-17T18:50:36.450Z,17.50
2023-02-17T18:55:42.411Z,17.50
2023-02-17T19:00:47.978Z,17.50
2023-02-17T19:05:53.253Z,17.50
2023-02-17T19:10:58.806Z,17.40
2023-02-17T19:16:32.324Z,17.40
2023-02-17T19:21:38.064Z,17.50
2023-02-17T19:26:43.869Z,17.60
2023-02-17T19:31:49.476Z,17.50
2023-02-17T19:36:55.467Z,17.60
2023-02-17T19:42:01.259Z,17.60
2023-02-17T19:47:06.520Z,17.50
2023-02-17T19:52:12.506Z,17.70
2023-02-17T19:57:20.640Z,17.60
2023-02-17T20:02:25.947Z,17.60
2023-02-17T20:07:33.231Z,17.60
2023-02-17T20:12:39.718Z,17.50
2023-02-17T20:17:46.010Z,17.50
2023-02-17T20:22:51.504Z,17.60
2023-02-17T20:27:57.299Z,17.70
2023-02-17T20:33:02.853Z,17.70
2023-02-17T20:38:08.924Z,17.80
2023-02-17T20:43:14.723Z,17.70
2023-02-17T20:48:20.461Z,17.60
2023-02-17T20:53:27.053Z,17.50
2023-02-17T20:58:32.628Z,17.40
2023-02-17T21:03:39.923Z,17.40
2023-02-17T21:08:45.693Z,17.40
2023-02-17T21:13:51.772Z,17.30
2023-02-17T21:18:57.300Z,17.40
2023-02-17T21:24:02.775Z,17.30
2023-02-17T21:29:08.435Z,17.30
2023-02-17T21:34:13.747Z,17.20
2023-02-17T21:39:19.439Z,17.20
2023-02-17T21:44:42.833Z,17.20
2023-02-17T21:49:49.079Z,17.20
2023-02-17T21:54:54.461Z,17.30
2023-02-17T22:00:00.337Z,17.20
2023-02-17T22:05:05.646Z,17.20
2023-02-17T22:10:11.467Z,17.30
2023-02-17T22:15:17.646Z,17.20
2023-02-17T22:20:22.866Z,17.30
2023-02-17T22:25:28.229Z,17.20
2023-02-17T22:30:33.614Z,17.20
2023-02-17T22:35:39.118Z,17.20
2023-02-17T22:40:44.448Z,17.20
2023-02-17T22:45:50.032Z,17.30
2023-02-17T22:50:55.425Z,17.20
2023-02-17T22:56:00.585Z,17.20
2023-02-17T23:01:22.105Z,17.20
2023-02-17T23:06:33.391Z,17.20
2023-02-17T23:11:56.183Z,17.20
2023-02-17T23:17:08.001Z,17.10
2023-02-17T23:22:19.054Z,17.00
2023-02-17T23:27:24.648Z,17.00
2023-02-17T23:32:33.709Z,17.00
2023-02-17T23:37:39.505Z,17.00
2023-02-17T23:42:44.978Z,17.00
2023-02-17T23:47:50.622Z,17.00
2023-02-17T23:52:56.207Z,17.10
2023-02-17T23:58:02.239Z,17.10
